sensor_id;sensor_type;location;lat;lon;timestamp;temperature;humidity
51950;DHT22;37974;53.218;6.640;2024-03-29T00:01:17;7.30;99.90
51950;DHT22;37974;53.218;6.640;2024-03-29T00:04:12;7.60;99.90
51950;DHT22;37974;53.218;6.640;2024-03-29T00:06:57;7.60;99.90
51950;DHT22;37974;53.218;6.640;2024-03-29T00:09:43;7.20;99.90
51950;DHT22;37974;53.218;6.640;2024-03-29T00:12:33;7.20;99.90
51950;DHT22;37974;53.218;6.640;2024-03-29T00:15:25;7.60;99.90
51950;DHT22;37974;53.218;6.640;2024-03-29T00:18:21;7.60;99.90
51950;DHT22;37974;53.218;6.640;2024-03-29T00:21:01;7.70;99.90
51950;DHT22;37974;53.218;6.640;2024-03-29T00:23:33;7.50;99.90
51950;DHT22;37974;53.218;6.640;2024-03-29T00:26:03;8.00;99.90
51950;DHT22;37974;53.218;6.640;2024-03-29T00:29:08;7.40;99.90
51950;DHT22;37974;53.218;6.640;2024-03-29T00:32:08;7.40;99.90
51950;DHT22;37974;53.218;6.640;2024-03-29T00:35:20;7.60;99.90
51950;DHT22;37974;53.218;6.640;2024-03-29T00:41:46;7.40;99.90
51950;DHT22;37974;53.218;6.640;2024-03-29T00:44:35;7.30;99.90
51950;DHT22;37974;53.218;6.640;2024-03-29T00:50:10;6.40;99.90
51950;DHT22;37974;53.218;6.640;2024-03-29T00:52:42;7.30;99.90
51950;DHT22;37974;53.218;6.640;2024-03-29T00:55:34;7.30;99.90
51950;DHT22;37974;53.218;6.640;2024-03-29T00:58:35;7.10;99.90
51950;DHT22;37974;53.218;6.640;2024-03-29T01:01:42;7.30;99.90
51950;DHT22;37974;53.218;6.640;2024-03-29T01:05:05;7.30;99.90
51950;DHT22;37974;53.218;6.640;2024-03-29T01:10:41;7.30;99.90
51950;DHT22;37974;53.218;6.640;2024-03-29T01:13:28;7.40;99.90
51950;DHT22;37974;53.218;6.640;2024-03-29T01:16:03;7.30;99.90
51950;DHT22;37974;53.218;6.640;2024-03-29T01:18:31;7.10;99.90
51950;DHT22;37974;53.218;6.640;2024-03-29T01:21:05;7.40;99.90
51950;DHT22;37974;53.218;6.640;2024-03-29T01:23:56;7.40;99.90
51950;DHT22;37974;53.218;6.640;2024-03-29T01:29:46;7.30;99.90
51950;DHT22;37974;53.218;6.640;2024-03-29T01:32:57;7.40;99.90
51950;DHT22;37974;53.218;6.640;2024-03-29T01:38:42;7.40;99.90
51950;DHT22;37974;53.218;6.640;2024-03-29T01:41:40;7.40;99.90
51950;DHT22;37974;53.218;6.640;2024-03-29T01:44:08;7.40;99.90
51950;DHT22;37974;53.218;6.640;2024-03-29T01:50:14;8.00;99.90
51950;DHT22;37974;53.218;6.640;2024-03-29T01:52:52;7.50;99.90
51950;DHT22;37974;53.218;6.640;2024-03-29T01:55:41;6.60;99.90
51950;DHT22;37974;53.218;6.640;2024-03-29T01:58:29;7.50;99.90
51950;DHT22;37974;53.218;6.640;2024-03-29T02:01:20;8.00;99.90
51950;DHT22;37974;53.218;6.640;2024-03-29T02:04:17;7.40;99.90
51950;DHT22;37974;53.218;6.640;2024-03-29T02:07:48;7.30;99.90
51950;DHT22;37974;53.218;6.640;2024-03-29T02:10:59;7.40;99.90
51950;DHT22;37974;53.218;6.640;2024-03-29T02:13:33;8.10;99.90
51950;DHT22;37974;53.218;6.640;2024-03-29T02:16:33;7.30;99.90
51950;DHT22;37974;53.218;6.640;2024-03-29T02:19:22;7.30;99.90
51950;DHT22;37974;53.218;6.640;2024-03-29T02:21:54;7.30;99.90
51950;DHT22;37974;53.218;6.640;2024-03-29T02:24:21;7.30;99.90
51950;DHT22;37974;53.218;6.640;2024-03-29T02:27:28;7.20;99.90
51950;DHT22;37974;53.218;6.640;2024-03-29T02:30:12;7.50;99.90
51950;DHT22;37974;53.218;6.640;2024-03-29T02:32:56;7.10;99.90
51950;DHT22;37974;53.218;6.640;2024-03-29T02:35:52;7.10;99.90
51950;DHT22;37974;53.218;6.640;2024-03-29T02:39:05;7.10;99.90
51950;DHT22;37974;53.218;6.640;2024-03-29T02:42:12;7.00;99.90
51950;DHT22;37974;53.218;6.640;2024-03-29T02:45:02;7.00;99.90
51950;DHT22;37974;53.218;6.640;2024-03-29T02:48:23;7.00;99.90
51950;DHT22;37974;53.218;6.640;2024-03-29T02:51:23;7.00;99.90
51950;DHT22;37974;53.218;6.640;2024-03-29T02:57:18;7.00;99.90
51950;DHT22;37974;53.218;6.640;2024-03-29T03:00:02;7.30;99.90
51950;DHT22;37974;53.218;6.640;2024-03-29T03:02:51;7.00;99.90
51950;DHT22;37974;53.218;6.640;2024-03-29T03:05:19;6.70;99.90
51950;DHT22;37974;53.218;6.640;2024-03-29T03:07:54;6.70;99.90
51950;DHT22;37974;53.218;6.640;2024-03-29T03:11:06;6.90;99.90
51950;DHT22;37974;53.218;6.640;2024-03-29T03:13:44;6.90;99.90
51950;DHT22;37974;53.218;6.640;2024-03-29T03:16:40;6.90;99.90
51950;DHT22;37974;53.218;6.640;2024-03-29T03:22:44;7.20;99.90
51950;DHT22;37974;53.218;6.640;2024-03-29T03:28:29;7.00;99.90
51950;DHT22;37974;53.218;6.640;2024-03-29T03:31:28;7.60;99.90
51950;DHT22;37974;53.218;6.640;2024-03-29T03:36:59;7.00;99.90
51950;DHT22;37974;53.218;6.640;2024-03-29T03:39:46;6.70;99.90
51950;DHT22;37974;53.218;6.640;2024-03-29T03:45:26;6.50;99.90
51950;DHT22;37974;53.218;6.640;2024-03-29T03:51:37;7.00;99.90
51950;DHT22;37974;53.218;6.640;2024-03-29T03:54:09;7.10;99.90
51950;DHT22;37974;53.218;6.640;2024-03-29T03:57:21;7.10;99.90
51950;DHT22;37974;53.218;6.640;2024-03-29T04:00:32;7.10;99.90
51950;DHT22;37974;53.218;6.640;2024-03-29T04:03:42;7.50;99.90
51950;DHT22;37974;53.218;6.640;2024-03-29T04:06:35;7.10;99.90
51950;DHT22;37974;53.218;6.640;2024-03-29T04:09:38;7.10;99.90
51950;DHT22;37974;53.218;6.640;2024-03-29T04:12:21;7.10;99.90
51950;DHT22;37974;53.218;6.640;2024-03-29T04:16:06;7.10;99.90
51950;DHT22;37974;53.218;6.640;2024-03-29T04:19:20;7.00;99.90
51950;DHT22;37974;53.218;6.640;2024-03-29T04:22:00;7.00;99.90
51950;DHT22;37974;53.218;6.640;2024-03-29T04:24:35;6.80;99.90
51950;DHT22;37974;53.218;6.640;2024-03-29T04:27:34;7.10;99.90
51950;DHT22;37974;53.218;6.640;2024-03-29T04:30:15;6.90;99.90
51950;DHT22;37974;53.218;6.640;2024-03-29T04:39:16;7.20;99.90
51950;DHT22;37974;53.218;6.640;2024-03-29T04:42:02;7.20;99.90
51950;DHT22;37974;53.218;6.640;2024-03-29T04:44:59;7.40;99.90
51950;DHT22;37974;53.218;6.640;2024-03-29T04:47:32;7.30;99.90
51950;DHT22;37974;53.218;6.640;2024-03-29T04:50:36;7.30;99.90
51950;DHT22;37974;53.218;6.640;2024-03-29T04:53:38;7.30;99.90
51950;DHT22;37974;53.218;6.640;2024-03-29T04:57:08;7.40;99.90
51950;DHT22;37974;53.218;6.640;2024-03-29T04:59:40;7.60;99.90
51950;DHT22;37974;53.218;6.640;2024-03-29T05:02:30;7.40;99.90
51950;DHT22;37974;53.218;6.640;2024-03-29T05:05:49;7.30;99.90
51950;DHT22;37974;53.218;6.640;2024-03-29T05:08:48;8.00;99.90
51950;DHT22;37974;53.218;6.640;2024-03-29T05:11:26;7.40;99.90
51950;DHT22;37974;53.218;6.640;2024-03-29T05:13:56;7.60;99.90
51950;DHT22;37974;53.218;6.640;2024-03-29T05:17:21;7.50;99.90
51950;DHT22;37974;53.218;6.640;2024-03-29T05:19:51;7.60;99.90
51950;DHT22;37974;53.218;6.640;2024-03-29T05:22:31;7.60;99.90
51950;DHT22;37974;53.218;6.640;2024-03-29T05:25:32;7.60;99.90
51950;DHT22;37974;53.218;6.640;2024-03-29T05:28:19;7.20;99.90
51950;DHT22;37974;53.218;6.640;2024-03-29T05:30:57;7.70;99.90
51950;DHT22;37974;53.218;6.640;2024-03-29T05:33:49;7.70;99.90
51950;DHT22;37974;53.218;6.640;2024-03-29T05:36:59;7.90;99.90
51950;DHT22;37974;53.218;6.640;2024-03-29T05:39:27;7.70;99.90
51950;DHT22;37974;53.218;6.640;2024-03-29T05:42:05;7.60;99.90
51950;DHT22;37974;53.218;6.640;2024-03-29T05:44:50;7.80;99.90
51950;DHT22;37974;53.218;6.640;2024-03-29T05:47:16;7.80;99.90
51950;DHT22;37974;53.218;6.640;2024-03-29T05:49:50;7.80;99.90
51950;DHT22;37974;53.218;6.640;2024-03-29T05:52:35;7.80;99.90
51950;DHT22;37974;53.218;6.640;2024-03-29T05:56:16;7.80;99.90
51950;DHT22;37974;53.218;6.640;2024-03-29T06:01:47;7.90;99.90
51950;DHT22;37974;53.218;6.640;2024-03-29T06:04:22;8.40;99.90
51950;DHT22;37974;53.218;6.640;2024-03-29T06:07:05;8.00;99.90
51950;DHT22;37974;53.218;6.640;2024-03-29T06:09:59;8.00;99.90
51950;DHT22;37974;53.218;6.640;2024-03-29T06:13:01;8.00;99.90
51950;DHT22;37974;53.218;6.640;2024-03-29T06:15:33;8.00;99.90
51950;DHT22;37974;53.218;6.640;2024-03-29T06:18:20;8.00;99.90
51950;DHT22;37974;53.218;6.640;2024-03-29T06:20:53;8.10;99.90
51950;DHT22;37974;53.218;6.640;2024-03-29T06:23:24;7.80;99.90
51950;DHT22;37974;53.218;6.640;2024-03-29T06:26:07;8.20;99.90
51950;DHT22;37974;53.218;6.640;2024-03-29T06:31:50;8.30;99.90
51950;DHT22;37974;53.218;6.640;2024-03-29T06:34:36;8.30;99.90
51950;DHT22;37974;53.218;6.640;2024-03-29T06:37:14;8.40;99.90
51950;DHT22;37974;53.218;6.640;2024-03-29T06:39:42;8.50;99.90
51950;DHT22;37974;53.218;6.640;2024-03-29T06:42:32;8.50;99.90
51950;DHT22;37974;53.218;6.640;2024-03-29T06:45:15;8.50;99.90
51950;DHT22;37974;53.218;6.640;2024-03-29T06:50:59;8.60;99.90
51950;DHT22;37974;53.218;6.640;2024-03-29T06:53:40;8.60;99.90
51950;DHT22;37974;53.218;6.640;2024-03-29T06:56:17;8.70;99.90
51950;DHT22;37974;53.218;6.640;2024-03-29T06:58:58;8.50;99.90
51950;DHT22;37974;53.218;6.640;2024-03-29T07:01:33;8.70;99.90
51950;DHT22;37974;53.218;6.640;2024-03-29T07:04:30;8.80;99.90
51950;DHT22;37974;53.218;6.640;2024-03-29T07:07:30;8.90;99.90
51950;DHT22;37974;53.218;6.640;2024-03-29T07:13:06;8.60;99.90
51950;DHT22;37974;53.218;6.640;2024-03-29T07:15:38;9.10;99.90
51950;DHT22;37974;53.218;6.640;2024-03-29T07:18:19;9.10;99.90
51950;DHT22;37974;53.218;6.640;2024-03-29T07:20:57;8.90;99.90
51950;DHT22;37974;53.218;6.640;2024-03-29T07:23:35;9.70;99.90
51950;DHT22;37974;53.218;6.640;2024-03-29T07:29:53;9.40;99.90
51950;DHT22;37974;53.218;6.640;2024-03-29T07:32:23;10.30;99.90
51950;DHT22;37974;53.218;6.640;2024-03-29T07:35:11;9.20;99.90
51950;DHT22;37974;53.218;6.640;2024-03-29T07:37:57;9.40;99.90
51950;DHT22;37974;53.218;6.640;2024-03-29T07:40:35;9.50;99.90
51950;DHT22;37974;53.218;6.640;2024-03-29T07:43:25;9.60;99.90
51950;DHT22;37974;53.218;6.640;2024-03-29T07:46:22;9.60;99.90
51950;DHT22;37974;53.218;6.640;2024-03-29T07:49:10;9.60;99.90
51950;DHT22;37974;53.218;6.640;2024-03-29T07:52:32;9.60;99.90
51950;DHT22;37974;53.218;6.640;2024-03-29T07:55:11;9.60;99.90
51950;DHT22;37974;53.218;6.640;2024-03-29T07:57:52;9.60;99.90
51950;DHT22;37974;53.218;6.640;2024-03-29T08:01:18;9.60;99.90
51950;DHT22;37974;53.218;6.640;2024-03-29T08:03:53;9.70;99.90
51950;DHT22;37974;53.218;6.640;2024-03-29T08:06:51;9.10;99.90
51950;DHT22;37974;53.218;6.640;2024-03-29T08:10:11;9.60;99.90
51950;DHT22;37974;53.218;6.640;2024-03-29T08:13:12;9.60;99.90
51950;DHT22;37974;53.218;6.640;2024-03-29T08:16:03;9.70;99.90
51950;DHT22;37974;53.218;6.640;2024-03-29T08:19:13;9.80;99.90
51950;DHT22;37974;53.218;6.640;2024-03-29T08:21:53;10.10;99.90
51950;DHT22;37974;53.218;6.640;2024-03-29T08:24:41;9.70;99.90
51950;DHT22;37974;53.218;6.640;2024-03-29T08:27:42;9.80;99.90
51950;DHT22;37974;53.218;6.640;2024-03-29T08:33:32;9.50;99.90
51950;DHT22;37974;53.218;6.640;2024-03-29T08:42:07;9.40;99.90
51950;DHT22;37974;53.218;6.640;2024-03-29T08:45:15;9.40;99.90
51950;DHT22;37974;53.218;6.640;2024-03-29T08:50:48;9.40;99.90
51950;DHT22;37974;53.218;6.640;2024-03-29T08:53:31;9.50;99.90
51950;DHT22;37974;53.218;6.640;2024-03-29T08:59:41;9.50;99.90
51950;DHT22;37974;53.218;6.640;2024-03-29T09:02:39;9.80;99.90
51950;DHT22;37974;53.218;6.640;2024-03-29T09:05:59;9.90;99.90
51950;DHT22;37974;53.218;6.640;2024-03-29T09:08:26;10.30;99.90
51950;DHT22;37974;53.218;6.640;2024-03-29T09:11:03;10.90;99.90
51950;DHT22;37974;53.218;6.640;2024-03-29T09:13:53;10.70;99.90
51950;DHT22;37974;53.218;6.640;2024-03-29T09:16:28;11.10;99.90
51950;DHT22;37974;53.218;6.640;2024-03-29T09:20:14;11.20;99.90
51950;DHT22;37974;53.218;6.640;2024-03-29T09:29:15;11.40;99.90
51950;DHT22;37974;53.218;6.640;2024-03-29T09:31:52;11.40;99.90
51950;DHT22;37974;53.218;6.640;2024-03-29T09:34:40;10.90;99.90
51950;DHT22;37974;53.218;6.640;2024-03-29T09:38:00;11.10;99.90
51950;DHT22;37974;53.218;6.640;2024-03-29T09:40:36;11.10;99.90
51950;DHT22;37974;53.218;6.640;2024-03-29T09:43:23;11.10;99.90
51950;DHT22;37974;53.218;6.640;2024-03-29T09:48:40;11.00;99.90
51950;DHT22;37974;53.218;6.640;2024-03-29T09:51:46;11.00;99.90
51950;DHT22;37974;53.218;6.640;2024-03-29T09:54:42;11.20;99.90
51950;DHT22;37974;53.218;6.640;2024-03-29T09:57:22;11.30;99.90
51950;DHT22;37974;53.218;6.640;2024-03-29T10:00:11;11.40;99.90
51950;DHT22;37974;53.218;6.640;2024-03-29T10:03:02;11.50;99.90
51950;DHT22;37974;53.218;6.640;2024-03-29T10:05:41;11.70;99.90
51950;DHT22;37974;53.218;6.640;2024-03-29T10:08:54;11.30;99.90
51950;DHT22;37974;53.218;6.640;2024-03-29T10:11:47;11.80;99.90
51950;DHT22;37974;53.218;6.640;2024-03-29T10:14:26;11.80;99.90
51950;DHT22;37974;53.218;6.640;2024-03-29T10:17:16;11.70;99.90
51950;DHT22;37974;53.218;6.640;2024-03-29T10:20:23;11.40;99.90
51950;DHT22;37974;53.218;6.640;2024-03-29T10:23:45;11.20;99.90
51950;DHT22;37974;53.218;6.640;2024-03-29T10:26:37;11.20;99.90
51950;DHT22;37974;53.218;6.640;2024-03-29T10:29:27;11.30;99.90
51950;DHT22;37974;53.218;6.640;2024-03-29T10:32:08;11.40;99.90
51950;DHT22;37974;53.218;6.640;2024-03-29T10:34:34;11.20;99.90
51950;DHT22;37974;53.218;6.640;2024-03-29T10:40:40;11.60;99.90
51950;DHT22;37974;53.218;6.640;2024-03-29T10:43:22;11.80;99.90
51950;DHT22;37974;53.218;6.640;2024-03-29T10:46:19;11.90;99.90
51950;DHT22;37974;53.218;6.640;2024-03-29T10:49:08;12.00;99.90
51950;DHT22;37974;53.218;6.640;2024-03-29T10:52:06;11.90;99.90
51950;DHT22;37974;53.218;6.640;2024-03-29T10:55:11;12.00;99.90
51950;DHT22;37974;53.218;6.640;2024-03-29T11:04:33;12.50;99.90
51950;DHT22;37974;53.218;6.640;2024-03-29T11:07:17;12.60;99.90
51950;DHT22;37974;53.218;6.640;2024-03-29T11:13:00;12.90;99.90
51950;DHT22;37974;53.218;6.640;2024-03-29T11:15:36;12.60;99.90
51950;DHT22;37974;53.218;6.640;2024-03-29T11:18:12;12.60;99.90
51950;DHT22;37974;53.218;6.640;2024-03-29T11:20:53;12.60;99.90
51950;DHT22;37974;53.218;6.640;2024-03-29T11:30:06;12.30;99.90
51950;DHT22;37974;53.218;6.640;2024-03-29T11:33:35;12.30;99.90
51950;DHT22;37974;53.218;6.640;2024-03-29T11:36:28;12.50;99.90
51950;DHT22;37974;53.218;6.640;2024-03-29T11:39:09;12.50;99.90
51950;DHT22;37974;53.218;6.640;2024-03-29T11:41:56;12.40;99.90
51950;DHT22;37974;53.218;6.640;2024-03-29T11:44:52;12.20;99.90
51950;DHT22;37974;53.218;6.640;2024-03-29T11:47:39;12.00;99.90
51950;DHT22;37974;53.218;6.640;2024-03-29T11:50:35;11.90;99.90
51950;DHT22;37974;53.218;6.640;2024-03-29T11:53:05;12.20;99.90
51950;DHT22;37974;53.218;6.640;2024-03-29T11:56:02;12.40;99.90
51950;DHT22;37974;53.218;6.640;2024-03-29T11:59:44;12.60;99.90
51950;DHT22;37974;53.218;6.640;2024-03-29T12:01:56;12.70;99.90
51950;DHT22;37974;53.218;6.640;2024-03-29T12:04:25;12.70;99.90
51950;DHT22;37974;53.218;6.640;2024-03-29T12:07:23;13.10;99.90
51950;DHT22;37974;53.218;6.640;2024-03-29T12:10:18;13.60;99.90
51950;DHT22;37974;53.218;6.640;2024-03-29T12:13:04;13.10;99.90
51950;DHT22;37974;53.218;6.640;2024-03-29T12:15:42;13.00;99.90
51950;DHT22;37974;53.218;6.640;2024-03-29T12:18:38;12.90;99.90
51950;DHT22;37974;53.218;6.640;2024-03-29T12:21:23;13.20;99.90
51950;DHT22;37974;53.218;6.640;2024-03-29T12:24:42;13.20;99.90
51950;DHT22;37974;53.218;6.640;2024-03-29T12:27:35;12.80;99.90
51950;DHT22;37974;53.218;6.640;2024-03-29T12:30:15;13.30;99.90
51950;DHT22;37974;53.218;6.640;2024-03-29T12:36:40;13.10;99.90
51950;DHT22;37974;53.218;6.640;2024-03-29T12:39:35;13.90;99.90
51950;DHT22;37974;53.218;6.640;2024-03-29T12:42:09;14.00;99.90
51950;DHT22;37974;53.218;6.640;2024-03-29T12:45:19;13.70;99.90
51950;DHT22;37974;53.218;6.640;2024-03-29T12:48:15;13.80;99.90
51950;DHT22;37974;53.218;6.640;2024-03-29T12:51:15;13.80;99.90
51950;DHT22;37974;53.218;6.640;2024-03-29T12:53:50;13.60;99.90
51950;DHT22;37974;53.218;6.640;2024-03-29T12:56:53;13.80;99.90
51950;DHT22;37974;53.218;6.640;2024-03-29T12:59:35;13.80;99.90
51950;DHT22;37974;53.218;6.640;2024-03-29T13:02:16;13.90;99.90
51950;DHT22;37974;53.218;6.640;2024-03-29T13:05:05;14.10;99.90
51950;DHT22;37974;53.218;6.640;2024-03-29T13:07:52;14.30;99.90
51950;DHT22;37974;53.218;6.640;2024-03-29T13:10:38;14.10;99.90
51950;DHT22;37974;53.218;6.640;2024-03-29T13:13:30;14.30;99.90
51950;DHT22;37974;53.218;6.640;2024-03-29T13:16:13;14.40;99.90
51950;DHT22;37974;53.218;6.640;2024-03-29T13:19:12;14.30;99.90
51950;DHT22;37974;53.218;6.640;2024-03-29T13:22:04;14.20;99.90
51950;DHT22;37974;53.218;6.640;2024-03-29T13:28:16;14.20;99.90
51950;DHT22;37974;53.218;6.640;2024-03-29T13:34:05;13.70;99.90
51950;DHT22;37974;53.218;6.640;2024-03-29T13:36:58;14.10;99.90
51950;DHT22;37974;53.218;6.640;2024-03-29T13:40:06;13.90;99.90
51950;DHT22;37974;53.218;6.640;2024-03-29T13:42:56;13.90;99.90
51950;DHT22;37974;53.218;6.640;2024-03-29T13:45:45;13.90;99.90
51950;DHT22;37974;53.218;6.640;2024-03-29T13:51:49;13.70;99.90
51950;DHT22;37974;53.218;6.640;2024-03-29T13:54:45;13.70;99.90
51950;DHT22;37974;53.218;6.640;2024-03-29T13:57:38;13.20;99.90
51950;DHT22;37974;53.218;6.640;2024-03-29T14:01:15;13.10;99.90
51950;DHT22;37974;53.218;6.640;2024-03-29T14:03:55;13.00;99.90
51950;DHT22;37974;53.218;6.640;2024-03-29T14:06:42;13.00;99.90
51950;DHT22;37974;53.218;6.640;2024-03-29T14:12:35;13.20;99.90
51950;DHT22;37974;53.218;6.640;2024-03-29T14:15:18;13.20;99.90
51950;DHT22;37974;53.218;6.640;2024-03-29T14:20:45;13.30;99.90
51950;DHT22;37974;53.218;6.640;2024-03-29T14:23:57;13.40;99.90
51950;DHT22;37974;53.218;6.640;2024-03-29T14:27:04;13.50;99.90
51950;DHT22;37974;53.218;6.640;2024-03-29T14:29:33;13.60;99.90
51950;DHT22;37974;53.218;6.640;2024-03-29T14:32:08;14.10;99.90
51950;DHT22;37974;53.218;6.640;2024-03-29T14:35:00;13.50;99.90
51950;DHT22;37974;53.218;6.640;2024-03-29T14:37:47;13.50;99.90
51950;DHT22;37974;53.218;6.640;2024-03-29T14:40:59;13.80;99.90
51950;DHT22;37974;53.218;6.640;2024-03-29T14:43:52;13.50;99.90
51950;DHT22;37974;53.218;6.640;2024-03-29T14:46:26;13.50;99.90
51950;DHT22;37974;53.218;6.640;2024-03-29T14:49:19;13.50;99.90
51950;DHT22;37974;53.218;6.640;2024-03-29T14:52:01;13.40;99.90
51950;DHT22;37974;53.218;6.640;2024-03-29T14:54:45;13.40;99.90
51950;DHT22;37974;53.218;6.640;2024-03-29T15:00:32;13.40;99.90
51950;DHT22;37974;53.218;6.640;2024-03-29T15:03:12;13.40;99.90
51950;DHT22;37974;53.218;6.640;2024-03-29T15:05:47;13.30;99.90
51950;DHT22;37974;53.218;6.640;2024-03-29T15:08:53;13.40;99.90
51950;DHT22;37974;53.218;6.640;2024-03-29T15:11:40;13.40;99.90
51950;DHT22;37974;53.218;6.640;2024-03-29T15:14:33;13.30;99.90
51950;DHT22;37974;53.218;6.640;2024-03-29T15:17:22;13.50;99.90
51950;DHT22;37974;53.218;6.640;2024-03-29T15:19:53;13.50;99.90
51950;DHT22;37974;53.218;6.640;2024-03-29T15:22:57;13.50;99.90
51950;DHT22;37974;53.218;6.640;2024-03-29T15:25:35;13.50;99.90
51950;DHT22;37974;53.218;6.640;2024-03-29T15:28:52;13.40;99.90
51950;DHT22;37974;53.218;6.640;2024-03-29T15:31:50;13.40;99.90
51950;DHT22;37974;53.218;6.640;2024-03-29T15:34:43;13.40;99.90
51950;DHT22;37974;53.218;6.640;2024-03-29T15:37:28;13.50;99.90
51950;DHT22;37974;53.218;6.640;2024-03-29T15:40:22;13.40;99.90
51950;DHT22;37974;53.218;6.640;2024-03-29T15:43:03;13.40;99.90
51950;DHT22;37974;53.218;6.640;2024-03-29T15:45:54;13.50;99.90
51950;DHT22;37974;53.218;6.640;2024-03-29T15:50:00;13.50;99.90
51950;DHT22;37974;53.218;6.640;2024-03-29T15:52:35;13.60;99.90
51950;DHT22;37974;53.218;6.640;2024-03-29T15:55:18;13.70;99.90
51950;DHT22;37974;53.218;6.640;2024-03-29T15:57:56;13.80;99.90
51950;DHT22;37974;53.218;6.640;2024-03-29T16:00:58;13.70;99.90
51950;DHT22;37974;53.218;6.640;2024-03-29T16:03:39;14.00;99.90
51950;DHT22;37974;53.218;6.640;2024-03-29T16:06:13;13.80;99.90
51950;DHT22;37974;53.218;6.640;2024-03-29T16:11:58;13.70;99.90
51950;DHT22;37974;53.218;6.640;2024-03-29T16:14:54;13.50;99.90
51950;DHT22;37974;53.218;6.640;2024-03-29T16:17:47;13.50;99.90
51950;DHT22;37974;53.218;6.640;2024-03-29T16:20:37;13.40;99.90
51950;DHT22;37974;53.218;6.640;2024-03-29T16:23:50;13.40;99.90
51950;DHT22;37974;53.218;6.640;2024-03-29T16:26:25;13.40;99.90
51950;DHT22;37974;53.218;6.640;2024-03-29T16:30:15;13.30;99.90
51950;DHT22;37974;53.218;6.640;2024-03-29T16:32:33;13.40;99.90
51950;DHT22;37974;53.218;6.640;2024-03-29T16:35:33;13.20;99.90
51950;DHT22;37974;53.218;6.640;2024-03-29T16:38:32;13.20;99.90
51950;DHT22;37974;53.218;6.640;2024-03-29T16:44:29;13.10;99.90
51950;DHT22;37974;53.218;6.640;2024-03-29T16:47:19;13.00;99.90
51950;DHT22;37974;53.218;6.640;2024-03-29T16:52:59;13.00;99.90
51950;DHT22;37974;53.218;6.640;2024-03-29T16:55:45;13.00;99.90
51950;DHT22;37974;53.218;6.640;2024-03-29T16:58:12;13.00;99.90
51950;DHT22;37974;53.218;6.640;2024-03-29T17:00:46;13.10;99.90
51950;DHT22;37974;53.218;6.640;2024-03-29T17:03:30;13.00;99.90
51950;DHT22;37974;53.218;6.640;2024-03-29T17:06:05;13.00;99.90
51950;DHT22;37974;53.218;6.640;2024-03-29T17:08:48;13.00;99.90
51950;DHT22;37974;53.218;6.640;2024-03-29T17:11:23;13.20;99.90
51950;DHT22;37974;53.218;6.640;2024-03-29T17:14:07;13.20;99.90
51950;DHT22;37974;53.218;6.640;2024-03-29T17:16:47;13.10;99.90
51950;DHT22;37974;53.218;6.640;2024-03-29T17:19:24;12.90;99.90
51950;DHT22;37974;53.218;6.640;2024-03-29T17:22:22;12.80;99.90
51950;DHT22;37974;53.218;6.640;2024-03-29T17:24:51;12.70;99.90
51950;DHT22;37974;53.218;6.640;2024-03-29T17:27:36;12.60;99.90
51950;DHT22;37974;53.218;6.640;2024-03-29T17:30:30;12.40;99.90
51950;DHT22;37974;53.218;6.640;2024-03-29T17:33:32;12.40;99.90
51950;DHT22;37974;53.218;6.640;2024-03-29T17:39:20;12.10;99.90
51950;DHT22;37974;53.218;6.640;2024-03-29T17:42:04;12.00;99.90
51950;DHT22;37974;53.218;6.640;2024-03-29T17:44:54;11.90;99.90
51950;DHT22;37974;53.218;6.640;2024-03-29T17:47:27;11.70;99.90
51950;DHT22;37974;53.218;6.640;2024-03-29T17:50:31;11.70;99.90
51950;DHT22;37974;53.218;6.640;2024-03-29T17:52:59;11.60;99.90
51950;DHT22;37974;53.218;6.640;2024-03-29T17:56:07;12.00;99.90
51950;DHT22;37974;53.218;6.640;2024-03-29T17:59:00;11.40;99.90
51950;DHT22;37974;53.218;6.640;2024-03-29T18:02:07;11.40;99.90
51950;DHT22;37974;53.218;6.640;2024-03-29T18:04:47;11.20;99.90
51950;DHT22;37974;53.218;6.640;2024-03-29T18:08:00;11.00;99.90
51950;DHT22;37974;53.218;6.640;2024-03-29T18:11:04;10.90;99.90
51950;DHT22;37974;53.218;6.640;2024-03-29T18:14:12;10.90;99.90
51950;DHT22;37974;53.218;6.640;2024-03-29T18:16:45;10.80;99.90
51950;DHT22;37974;53.218;6.640;2024-03-29T18:19:32;10.60;99.90
51950;DHT22;37974;53.218;6.640;2024-03-29T18:22:31;10.70;99.90
51950;DHT22;37974;53.218;6.640;2024-03-29T18:28:32;10.60;99.90
51950;DHT22;37974;53.218;6.640;2024-03-29T18:31:22;10.50;99.90
51950;DHT22;37974;53.218;6.640;2024-03-29T18:34:40;10.10;99.90
51950;DHT22;37974;53.218;6.640;2024-03-29T18:37:14;10.30;99.90
51950;DHT22;37974;53.218;6.640;2024-03-29T18:40:40;10.20;99.90
51950;DHT22;37974;53.218;6.640;2024-03-29T18:46:35;9.90;99.90
51950;DHT22;37974;53.218;6.640;2024-03-29T18:49:26;9.90;99.90
51950;DHT22;37974;53.218;6.640;2024-03-29T18:52:08;9.80;99.90
51950;DHT22;37974;53.218;6.640;2024-03-29T18:54:57;9.80;99.90
51950;DHT22;37974;53.218;6.640;2024-03-29T18:58:14;9.80;99.90
51950;DHT22;37974;53.218;6.640;2024-03-29T19:00:43;9.90;99.90
51950;DHT22;37974;53.218;6.640;2024-03-29T19:14:21;9.60;99.90
51950;DHT22;37974;53.218;6.640;2024-03-29T19:17:14;10.30;99.90
51950;DHT22;37974;53.218;6.640;2024-03-29T19:20:36;9.60;99.90
51950;DHT22;37974;53.218;6.640;2024-03-29T19:23:22;9.50;99.90
51950;DHT22;37974;53.218;6.640;2024-03-29T19:26:29;9.40;99.90
51950;DHT22;37974;53.218;6.640;2024-03-29T19:29:09;9.50;99.90
51950;DHT22;37974;53.218;6.640;2024-03-29T19:31:56;9.50;99.90
51950;DHT22;37974;53.218;6.640;2024-03-29T19:34:45;9.20;99.90
51950;DHT22;37974;53.218;6.640;2024-03-29T19:37:43;9.50;99.90
51950;DHT22;37974;53.218;6.640;2024-03-29T19:40:18;9.40;99.90
51950;DHT22;37974;53.218;6.640;2024-03-29T19:42:50;9.40;99.90
51950;DHT22;37974;53.218;6.640;2024-03-29T19:45:19;9.40;99.90
51950;DHT22;37974;53.218;6.640;2024-03-29T19:48:03;9.40;99.90
51950;DHT22;37974;53.218;6.640;2024-03-29T19:53:30;9.40;99.90
51950;DHT22;37974;53.218;6.640;2024-03-29T19:56:16;9.40;99.90
51950;DHT22;37974;53.218;6.640;2024-03-29T19:59:45;9.30;99.90
51950;DHT22;37974;53.218;6.640;2024-03-29T20:02:24;9.30;99.90
51950;DHT22;37974;53.218;6.640;2024-03-29T20:05:19;9.30;99.90
51950;DHT22;37974;53.218;6.640;2024-03-29T20:14:38;8.50;99.90
51950;DHT22;37974;53.218;6.640;2024-03-29T20:17:54;8.90;99.90
51950;DHT22;37974;53.218;6.640;2024-03-29T20:20:32;9.20;99.90
51950;DHT22;37974;53.218;6.640;2024-03-29T20:23:00;8.70;99.90
51950;DHT22;37974;53.218;6.640;2024-03-29T20:25:47;9.10;99.90
51950;DHT22;37974;53.218;6.640;2024-03-29T20:29:05;9.20;99.90
51950;DHT22;37974;53.218;6.640;2024-03-29T20:35:05;8.90;99.90
51950;DHT22;37974;53.218;6.640;2024-03-29T20:37:53;9.20;99.90
51950;DHT22;37974;53.218;6.640;2024-03-29T20:40:38;9.00;99.90
51950;DHT22;37974;53.218;6.640;2024-03-29T20:43:36;9.00;99.90
51950;DHT22;37974;53.218;6.640;2024-03-29T20:46:40;9.30;99.90
51950;DHT22;37974;53.218;6.640;2024-03-29T20:49:36;9.00;99.90
51950;DHT22;37974;53.218;6.640;2024-03-29T20:52:24;9.30;99.90